Time;durP1;ratioP1;P1;durP2;ratioP2;P2;SDS_P1;SDS_P2;PMS_P1;PMS_P2;Temp;Humidity;BMP_temperature;BMP_pressure;BME280_temperature;BME280_humidity;BME280_pressure;Samples;Min_cycle;Max_cycle;Signal;HPM_P1;HPM_P2
2022/01/09 00:00:08;;;;;;;0.90;0.80;;;3.40;99.90;;;;;;5088059;28;20235;-73
2022/01/09 00:02:35;;;;;;;1.45;0.93;;;3.40;99.90;;;;;;5074732;28;20220;-75
2022/01/09 00:05:02;;;;;;;0.80;0.80;;;3.40;99.90;;;;;;5069795;28;20711;-73
2022/01/09 00:07:29;;;;;;;0.82;0.73;;;3.40;99.90;;;;;;5071317;28;20204;-73
2022/01/09 00:09:56;;;;;;;1.08;0.98;;;3.40;99.90;;;;;;5079172;28;20615;-75
2022/01/09 00:12:23;;;;;;;0.80;0.70;;;3.40;99.90;;;;;;5090995;28;20615;-73
2022/01/09 00:14:52;;;;;;;1.00;0.80;;;3.40;99.90;;;;;;5075438;28;20251;-74
2022/01/09 00:17:19;;;;;;;1.27;1.00;;;3.40;99.90;;;;;;5070936;28;20614;-73
2022/01/09 00:19:46;;;;;;;1.23;0.82;;;3.40;99.90;;;;;;5076837;28;20211;-73
2022/01/09 00:22:13;;;;;;;1.00;0.90;;;3.40;99.90;;;;;;5112212;22;20635;-73
2022/01/09 00:24:40;;;;;;;2.35;0.90;;;3.40;99.90;;;;;;5064749;28;20217;-75
2022/01/09 00:27:07;;;;;;;1.00;0.90;;;3.40;99.90;;;;;;5071127;28;20215;-74
2022/01/09 00:29:34;;;;;;;1.40;0.90;;;3.40;99.90;;;;;;5070525;28;20220;-75
2022/01/09 00:32:02;;;;;;;0.80;0.60;;;3.30;99.90;;;;;;5070842;28;20196;-74
2022/01/09 00:34:28;;;;;;;0.90;0.80;;;3.30;99.90;;;;;;5071608;28;20224;-73
2022/01/09 00:36:55;;;;;;;0.95;0.82;;;3.30;99.90;;;;;;5071433;28;20257;-75
2022/01/09 00:39:22;;;;;;;0.90;0.80;;;3.30;99.90;;;;;;5071738;28;20201;-74
2022/01/09 00:41:48;;;;;;;1.52;0.60;;;3.30;99.90;;;;;;5070940;28;20207;-74
2022/01/09 00:44:29;;;;;;;1.05;0.75;;;3.30;99.90;;;;;;5071388;28;20706;-75
2022/01/09 00:46:58;;;;;;;0.70;0.60;;;3.20;99.90;;;;;;5070454;28;20207;-75
2022/01/09 00:49:27;;;;;;;0.70;0.70;;;3.20;99.90;;;;;;5071536;28;20220;-76
2022/01/09 00:51:54;;;;;;;1.05;0.70;;;3.30;99.90;;;;;;5070767;28;20226;-75
2022/01/09 00:54:22;;;;;;;0.93;0.70;;;3.30;99.90;;;;;;5071257;28;20224;-74
2022/01/09 00:56:48;;;;;;;1.30;0.80;;;3.30;99.90;;;;;;5071061;28;20751;-76
2022/01/09 00:59:15;;;;;;;0.90;0.77;;;3.30;99.90;;;;;;5071225;28;20262;-75
2022/01/09 01:01:42;;;;;;;0.80;0.73;;;3.30;99.90;;;;;;5070263;28;20200;-75
2022/01/09 01:04:09;;;;;;;0.80;0.70;;;3.30;99.90;;;;;;5071177;28;20220;-75
2022/01/09 01:06:37;;;;;;;0.80;0.70;;;3.30;99.90;;;;;;5071054;28;20818;-75
2022/01/09 01:09:04;;;;;;;0.90;0.80;;;3.30;99.90;;;;;;5070900;28;20220;-75
2022/01/09 01:11:30;;;;;;;0.80;0.70;;;3.30;99.90;;;;;;5070667;28;20233;-75
2022/01/09 01:13:57;;;;;;;1.80;0.80;;;3.30;99.90;;;;;;5071019;28;20609;-75
2022/01/09 01:16:24;;;;;;;0.80;0.70;;;3.30;99.90;;;;;;5071181;28;20200;-75
2022/01/09 01:18:54;;;;;;;0.82;0.70;;;3.30;99.90;;;;;;5070869;28;20200;-74
2022/01/09 01:21:23;;;;;;;0.70;0.60;;;3.30;99.90;;;;;;5071235;28;20200;-75
2022/01/09 01:23:51;;;;;;;0.90;0.73;;;3.30;99.90;;;;;;5070892;28;20579;-75
2022/01/09 01:26:18;;;;;;;0.98;0.75;;;3.40;99.90;;;;;;5071058;28;20207;-75
2022/01/09 01:28:44;;;;;;;0.80;0.70;;;3.40;99.90;;;;;;5070577;28;20227;-75
2022/01/09 01:31:11;;;;;;;0.80;0.70;;;3.40;99.90;;;;;;5070405;28;20212;-75
2022/01/09 01:33:38;;;;;;;0.80;0.70;;;3.40;99.90;;;;;;5070721;28;20220;-75
2022/01/09 01:36:05;;;;;;;0.80;0.70;;;3.30;99.90;;;;;;5070878;28;20211;-75
2022/01/09 01:38:32;;;;;;;0.80;0.70;;;3.40;99.90;;;;;;5070623;28;20196;-75
2022/01/09 01:41:01;;;;;;;0.85;0.70;;;3.40;99.90;;;;;;5070037;28;20204;-75
2022/01/09 01:43:28;;;;;;;0.80;0.70;;;3.40;99.90;;;;;;5070808;28;20223;-75
2022/01/09 01:45:54;;;;;;;1.02;0.73;;;3.50;99.90;;;;;;5070610;28;20204;-75
2022/01/09 01:48:21;;;;;;;0.70;0.70;;;3.50;99.90;;;;;;5070585;28;20618;-75
2022/01/09 01:50:48;;;;;;;0.90;0.60;;;3.50;99.90;;;;;;5070266;28;20229;-75
2022/01/09 01:53:18;;;;;;;0.70;0.70;;;3.50;99.90;;;;;;5070105;28;20620;-75
2022/01/09 01:55:51;;;;;;;1.00;0.70;;;3.60;99.90;;;;;;5070455;28;20200;-75
2022/01/09 01:58:20;;;;;;;0.70;0.60;;;3.50;99.90;;;;;;5070785;28;20626;-74
2022/01/09 02:00:47;;;;;;;0.90;0.73;;;3.60;99.90;;;;;;5072506;28;20209;-75
2022/01/09 02:03:14;;;;;;;0.75;0.68;;;3.50;99.90;;;;;;5070125;28;20196;-75
2022/01/09 02:05:43;;;;;;;0.90;0.80;;;3.60;99.90;;;;;;5070401;28;20204;-75
2022/01/09 02:08:10;;;;;;;0.90;0.70;;;3.50;99.90;;;;;;5070305;28;20204;-75
2022/01/09 02:10:39;;;;;;;0.70;0.60;;;3.60;99.90;;;;;;5070195;28;20687;-75
2022/01/09 02:13:07;;;;;;;0.85;0.75;;;3.60;99.90;;;;;;5069897;28;20231;-76
2022/01/09 02:15:37;;;;;;;0.80;0.70;;;3.60;99.90;;;;;;5070210;28;20247;-75
2022/01/09 02:18:06;;;;;;;0.80;0.70;;;3.60;99.90;;;;;;5070281;28;20211;-76
2022/01/09 02:20:36;;;;;;;0.80;0.73;;;3.60;99.90;;;;;;5069976;28;20679;-75
2022/01/09 02:23:03;;;;;;;0.85;0.60;;;3.60;99.90;;;;;;5069461;28;20675;-75
2022/01/09 02:25:31;;;;;;;0.80;0.70;;;3.60;99.90;;;;;;5070040;28;20235;-74
2022/01/09 02:27:58;;;;;;;0.70;0.60;;;3.60;99.90;;;;;;5070211;28;20616;-75
2022/01/09 02:30:25;;;;;;;0.80;0.70;;;3.60;99.90;;;;;;5070193;28;20228;-75
2022/01/09 02:32:52;;;;;;;0.80;0.70;;;3.60;99.90;;;;;;5069475;28;20200;-75
2022/01/09 02:35:22;;;;;;;0.70;0.70;;;3.60;99.90;;;;;;5069993;28;20737;-75
2022/01/09 02:37:50;;;;;;;1.02;0.70;;;3.50;99.90;;;;;;5069838;28;20211;-75
2022/01/09 02:40:17;;;;;;;0.80;0.70;;;3.50;99.90;;;;;;5070033;28;20197;-75
2022/01/09 02:42:44;;;;;;;0.90;0.70;;;3.50;99.90;;;;;;5069146;28;20204;-75
2022/01/09 02:45:11;;;;;;;0.70;0.60;;;3.40;99.90;;;;;;5069490;28;20764;-75
2022/01/09 02:47:39;;;;;;;0.70;0.60;;;3.40;99.90;;;;;;5069670;28;20682;-75
2022/01/09 02:50:12;;;;;;;1.17;0.70;;;3.40;99.90;;;;;;5069773;28;20228;-75
2022/01/09 02:52:52;;;;;;;0.77;0.68;;;3.40;99.90;;;;;;5070197;28;20239;-75
2022/01/09 02:55:21;;;;;;;1.20;0.70;;;3.40;99.90;;;;;;5073549;28;20224;-75
2022/01/09 02:57:50;;;;;;;0.80;0.70;;;3.30;99.90;;;;;;5073052;28;20208;-75
2022/01/09 03:00:19;;;;;;;1.65;0.70;;;3.30;99.90;;;;;;5073171;28;20570;-74
2022/01/09 03:02:46;;;;;;;0.70;0.65;;;3.30;99.90;;;;;;5072516;28;20208;-74
2022/01/09 03:05:13;;;;;;;1.60;0.70;;;3.20;99.90;;;;;;5073022;28;20231;-74
2022/01/09 03:07:41;;;;;;;0.90;0.70;;;3.20;99.90;;;;;;5072882;28;20614;-74
2022/01/09 03:10:09;;;;;;;1.45;0.70;;;3.20;99.90;;;;;;5073039;28;20653;-74
2022/01/09 03:12:38;;;;;;;0.90;0.73;;;3.20;99.90;;;;;;5072158;28;20567;-74
2022/01/09 03:15:06;;;;;;;1.15;0.75;;;3.20;99.90;;;;;;5073282;28;20629;-74
2022/01/09 03:17:33;;;;;;;0.85;0.70;;;3.30;99.90;;;;;;5073155;28;20200;-74
2022/01/09 03:20:00;;;;;;;0.70;0.60;;;3.40;99.90;;;;;;5073335;28;20204;-74
2022/01/09 03:22:27;;;;;;;0.70;0.70;;;3.40;99.90;;;;;;5072486;28;20212;-73
2022/01/09 03:24:53;;;;;;;0.80;0.70;;;3.40;99.90;;;;;;5073004;28;20223;-75
2022/01/09 03:27:20;;;;;;;0.90;0.70;;;3.40;99.90;;;;;;5072932;28;20690;-75
2022/01/09 03:29:48;;;;;;;1.00;0.80;;;3.40;99.90;;;;;;5072949;28;20307;-74
2022/01/09 03:32:15;;;;;;;0.80;0.70;;;3.40;99.90;;;;;;5072760;28;20204;-74
2022/01/09 03:34:42;;;;;;;0.80;0.70;;;3.40;99.90;;;;;;5073030;28;20220;-74
2022/01/09 03:37:09;;;;;;;0.80;0.70;;;3.50;99.90;;;;;;5073750;28;20204;-74
2022/01/09 03:39:36;;;;;;;0.90;0.70;;;3.50;99.90;;;;;;5073338;28;20196;-74
2022/01/09 03:42:03;;;;;;;0.80;0.70;;;3.40;99.90;;;;;;5072719;28;20224;-75
2022/01/09 03:44:30;;;;;;;0.70;0.60;;;3.50;99.90;;;;;;5072965;28;20237;-75
2022/01/09 03:46:58;;;;;;;1.20;0.70;;;3.50;99.90;;;;;;5072725;28;20200;-74
2022/01/09 03:49:25;;;;;;;0.80;0.70;;;3.40;99.90;;;;;;5072714;28;20235;-74
2022/01/09 03:51:53;;;;;;;1.15;0.85;;;3.40;99.90;;;;;;5072201;28;20215;-75
2022/01/09 03:54:21;;;;;;;0.90;0.70;;;3.40;99.90;;;;;;5072701;28;20605;-75
2022/01/09 03:56:48;;;;;;;2.60;0.80;;;3.40;99.90;;;;;;5072387;28;20238;-74
2022/01/09 03:59:15;;;;;;;0.80;0.70;;;3.40;99.90;;;;;;5072502;28;20203;-75
2022/01/09 04:01:41;;;;;;;0.95;0.80;;;3.40;99.90;;;;;;5071673;28;20211;-74
2022/01/09 04:04:10;;;;;;;0.85;0.68;;;3.40;99.90;;;;;;5072289;28;20220;-74
2022/01/09 04:06:39;;;;;;;1.10;0.88;;;3.40;99.90;;;;;;5072105;28;20671;-74
2022/01/09 04:09:17;;;;;;;0.90;0.70;;;3.40;99.90;;;;;;5072153;28;20232;-75
2022/01/09 04:11:43;;;;;;;0.80;0.70;;;3.50;99.90;;;;;;5071701;28;20675;-75
2022/01/09 04:14:10;;;;;;;1.00;0.80;;;3.50;99.90;;;;;;5072125;28;20217;-74
2022/01/09 04:16:37;;;;;;;0.93;0.60;;;3.60;99.90;;;;;;5071863;28;20675;-74
2022/01/09 04:19:04;;;;;;;1.05;0.75;;;3.60;99.90;;;;;;5071937;28;20207;-75
2022/01/09 04:21:33;;;;;;;0.82;0.70;;;3.70;99.90;;;;;;5071397;28;20572;-74
2022/01/09 04:23:59;;;;;;;0.80;0.70;;;3.70;99.90;;;;;;5071896;28;20252;-75
2022/01/09 04:26:26;;;;;;;1.50;0.85;;;3.70;99.90;;;;;;5071806;28;20225;-75
2022/01/09 04:28:53;;;;;;;1.13;0.77;;;3.70;99.90;;;;;;5071407;28;20212;-75
2022/01/09 04:31:19;;;;;;;0.98;0.70;;;3.70;99.90;;;;;;5070946;28;20217;-74
2022/01/09 04:33:46;;;;;;;0.80;0.65;;;3.70;99.90;;;;;;5071235;28;20224;-75
2022/01/09 04:36:13;;;;;;;1.00;0.70;;;3.70;99.90;;;;;;5071489;28;20205;-75
2022/01/09 04:38:41;;;;;;;0.90;0.80;;;3.70;99.90;;;;;;5071285;28;20614;-75
2022/01/09 04:41:08;;;;;;;0.80;0.70;;;3.70;99.90;;;;;;5070971;28;20687;-75
2022/01/09 04:43:34;;;;;;;1.92;0.75;;;3.70;99.90;;;;;;5071169;28;20247;-74
2022/01/09 04:46:01;;;;;;;1.25;0.80;;;3.70;99.90;;;;;;5071232;28;20200;-74
2022/01/09 04:48:28;;;;;;;0.80;0.70;;;3.70;99.90;;;;;;5071099;28;20208;-75
2022/01/09 04:50:56;;;;;;;0.70;0.60;;;3.70;99.90;;;;;;5070492;28;20423;-74
2022/01/09 04:53:23;;;;;;;0.80;0.80;;;3.70;99.90;;;;;;5071113;28;20209;-75
2022/01/09 04:55:51;;;;;;;0.70;0.60;;;3.60;99.90;;;;;;5070961;28;20694;-75
2022/01/09 04:58:17;;;;;;;0.70;0.60;;;3.60;99.90;;;;;;5071176;28;20204;-75
2022/01/09 05:00:44;;;;;;;0.80;0.70;;;3.50;99.90;;;;;;5070885;28;20208;-75
2022/01/09 05:03:13;;;;;;;1.60;0.70;;;3.40;99.90;;;;;;5070838;28;20259;-75
2022/01/09 05:05:40;;;;;;;0.80;0.73;;;3.40;99.90;;;;;;5071160;28;20615;-75
2022/01/09 05:08:07;;;;;;;0.70;0.70;;;3.30;99.90;;;;;;5071110;28;20207;-75
2022/01/09 05:10:34;;;;;;;0.80;0.70;;;3.20;99.90;;;;;;5070757;28;20224;-74
2022/01/09 05:13:02;;;;;;;0.70;0.60;;;3.10;99.90;;;;;;5070556;28;20201;-73
2022/01/09 05:15:29;;;;;;;0.80;0.70;;;3.10;99.90;;;;;;5070501;28;20223;-74
2022/01/09 05:17:59;;;;;;;0.70;0.60;;;3.00;99.90;;;;;;5070774;28;20660;-74
2022/01/09 05:20:26;;;;;;;0.88;0.70;;;3.00;99.90;;;;;;5070880;28;20198;-74
2022/01/09 05:22:53;;;;;;;1.27;0.70;;;3.00;99.90;;;;;;5070270;28;20585;-74
2022/01/09 05:25:19;;;;;;;0.80;0.70;;;3.00;99.90;;;;;;5070742;28;20278;-74
2022/01/09 05:27:46;;;;;;;0.80;0.70;;;3.00;99.90;;;;;;5070667;28;20207;-74
2022/01/09 05:30:14;;;;;;;0.85;0.80;;;3.00;99.90;;;;;;5070585;28;20220;-74
2022/01/09 05:32:41;;;;;;;0.88;0.70;;;2.90;99.90;;;;;;5070131;28;20249;-74
2022/01/09 05:35:09;;;;;;;0.70;0.60;;;2.90;99.90;;;;;;5070671;28;20246;-73
2022/01/09 05:37:35;;;;;;;0.70;0.60;;;2.80;99.90;;;;;;5070517;28;20200;-74
2022/01/09 05:40:02;;;;;;;0.80;0.70;;;2.80;99.90;;;;;;5070832;28;20199;-72
2022/01/09 05:42:29;;;;;;;1.35;0.60;;;2.70;99.90;;;;;;5070081;28;20211;-74
2022/01/09 05:44:55;;;;;;;0.77;0.63;;;2.70;99.90;;;;;;5070609;28;20729;-74
2022/01/09 05:47:24;;;;;;;0.80;0.70;;;2.60;99.90;;;;;;5070775;28;20215;-74
2022/01/09 05:49:51;;;;;;;0.80;0.70;;;2.70;99.90;;;;;;5070403;28;20232;-74
2022/01/09 05:52:17;;;;;;;1.42;0.70;;;2.60;99.90;;;;;;5070716;28;20208;-73
2022/01/09 05:54:44;;;;;;;3.33;0.80;;;2.60;99.90;;;;;;5070446;28;20228;-74
2022/01/09 05:57:11;;;;;;;0.95;0.60;;;2.60;99.90;;;;;;5070564;28;20573;-74
2022/01/09 05:59:37;;;;;;;1.10;0.93;;;2.50;99.90;;;;;;5070296;28;20196;-74
2022/01/09 06:02:05;;;;;;;0.70;0.60;;;2.50;99.90;;;;;;5069973;28;20582;-74
2022/01/09 06:04:33;;;;;;;1.00;0.90;;;2.50;99.90;;;;;;5070303;28;20224;-74
2022/01/09 06:07:00;;;;;;;0.80;0.70;;;2.40;99.90;;;;;;5070166;28;20859;-74
2022/01/09 06:09:26;;;;;;;0.70;0.60;;;2.40;99.90;;;;;;5070227;28;20663;-74
2022/01/09 06:11:53;;;;;;;0.82;0.70;;;2.40;99.90;;;;;;5069859;28;20203;-74
2022/01/09 06:14:20;;;;;;;1.65;0.80;;;2.40;99.90;;;;;;5070060;28;20212;-74
2022/01/09 06:16:46;;;;;;;0.80;0.70;;;2.50;99.90;;;;;;5070228;28;20200;-73
2022/01/09 06:19:13;;;;;;;0.70;0.70;;;2.50;99.90;;;;;;5070261;28;20209;-74
2022/01/09 06:21:41;;;;;;;1.70;0.80;;;2.40;99.90;;;;;;5090649;22;20220;-92
2022/01/09 06:24:08;;;;;;;1.20;0.85;;;2.50;99.90;;;;;;5073432;28;20197;-92
2022/01/09 06:26:35;;;;;;;1.00;0.90;;;2.50;99.90;;;;;;5075042;28;20207;-91
2022/01/09 06:29:01;;;;;;;0.75;0.70;;;2.50;99.90;;;;;;5076826;28;20287;-92
2022/01/09 06:31:28;;;;;;;1.05;0.85;;;2.50;99.90;;;;;;5088468;28;20226;-94
2022/01/09 06:33:55;;;;;;;2.05;0.85;;;2.50;99.90;;;;;;5100871;28;20184;-94
2022/01/09 06:36:22;;;;;;;0.70;0.70;;;2.50;99.90;;;;;;5101045;28;20191;-95
2022/01/09 06:38:50;;;;;;;4.78;0.90;;;2.40;99.90;;;;;;5100944;28;20199;-96
2022/01/09 06:41:17;;;;;;;0.70;0.60;;;2.40;99.90;;;;;;5100359;28;20185;-94
2022/01/09 06:43:44;;;;;;;0.90;0.80;;;2.30;99.90;;;;;;5100595;28;20184;-95
2022/01/09 06:46:11;;;;;;;0.80;0.75;;;2.30;99.90;;;;;;5096832;28;20197;-91
2022/01/09 06:48:38;;;;;;;1.70;0.82;;;2.30;99.90;;;;;;5098571;28;20184;-93
2022/01/09 06:51:05;;;;;;;1.00;0.70;;;2.20;99.90;;;;;;5099746;28;20228;-93
2022/01/09 06:53:31;;;;;;;0.80;0.70;;;2.30;99.90;;;;;;5082245;28;20232;-92
2022/01/09 06:56:00;;;;;;;1.88;1.20;;;2.30;99.90;;;;;;5079098;28;20589;-92
2022/01/09 06:58:26;;;;;;;1.13;0.70;;;2.30;99.90;;;;;;5093513;28;20189;-94
2022/01/09 07:00:53;;;;;;;0.93;0.73;;;2.20;99.90;;;;;;5099967;28;20189;-92
2022/01/09 07:03:20;;;;;;;1.23;0.73;;;2.20;99.90;;;;;;5100130;28;20204;-95
2022/01/09 07:05:47;;;;;;;0.80;0.70;;;2.20;99.90;;;;;;5099886;28;20219;-95
2022/01/09 07:08:14;;;;;;;1.23;0.85;;;2.30;99.90;;;;;;5100191;28;20200;-94
2022/01/09 07:10:40;;;;;;;0.80;0.70;;;2.20;99.90;;;;;;5099720;28;20215;-92
2022/01/09 07:13:08;;;;;;;1.00;0.80;;;2.20;99.90;;;;;;5099774;28;20232;-94
2022/01/09 07:15:35;;;;;;;0.82;0.73;;;2.20;99.90;;;;;;5100044;28;20192;-93
2022/01/09 07:18:02;;;;;;;0.80;0.70;;;2.20;99.90;;;;;;5099417;28;20212;-94
2022/01/09 07:20:29;;;;;;;0.90;0.80;;;2.20;99.90;;;;;;5099410;28;20191;-93
2022/01/09 07:22:55;;;;;;;1.67;1.08;;;2.20;99.90;;;;;;5099729;28;20208;-94
2022/01/09 07:25:23;;;;;;;1.75;1.00;;;2.20;99.90;;;;;;5099813;28;20188;-94
2022/01/09 07:27:49;;;;;;;1.10;1.00;;;2.20;99.90;;;;;;5099844;28;20214;-93
2022/01/09 07:30:18;;;;;;;1.42;0.95;;;2.20;99.90;;;;;;5099634;28;20228;-94
2022/01/09 07:32:44;;;;;;;5.03;1.13;;;2.20;99.90;;;;;;5099627;28;20200;-92
2022/01/09 07:35:12;;;;;;;2.42;1.45;;;2.20;99.90;;;;;;5099721;28;20177;-94
2022/01/09 07:37:38;;;;;;;1.63;1.30;;;2.20;99.90;;;;;;5098924;28;20196;-92
2022/01/09 07:40:06;;;;;;;1.42;1.10;;;2.20;99.90;;;;;;5094479;28;20687;-92
2022/01/09 07:42:33;;;;;;;2.65;1.23;;;2.20;99.90;;;;;;5084730;28;20232;-91
2022/01/09 07:45:00;;;;;;;2.88;1.80;;;2.20;99.90;;;;;;5080646;28;20212;-90
2022/01/09 07:47:28;;;;;;;3.63;1.40;;;2.30;99.90;;;;;;5075923;28;20454;-91
2022/01/09 07:49:55;;;;;;;3.95;2.03;;;2.30;99.90;;;;;;5075010;28;20208;-92
2022/01/09 07:52:22;;;;;;;4.68;1.58;;;2.40;99.90;;;;;;5071759;28;20587;-92
2022/01/09 07:54:49;;;;;;;5.18;1.90;;;2.40;99.90;;;;;;5074250;28;20206;-91
2022/01/09 07:57:16;;;;;;;5.18;1.70;;;2.50;99.90;;;;;;5074378;28;20208;-91
2022/01/09 07:59:42;;;;;;;3.70;1.75;;;2.60;99.90;;;;;;5075009;28;20196;-91
2022/01/09 08:02:09;;;;;;;4.93;2.97;;;2.70;99.90;;;;;;5073873;28;20209;-92
2022/01/09 08:04:38;;;;;;;2.35;1.27;;;2.70;99.90;;;;;;5074656;28;20200;-92
2022/01/09 08:07:05;;;;;;;3.22;1.92;;;2.80;99.90;;;;;;5074178;28;20207;-91
2022/01/09 08:09:32;;;;;;;3.58;2.00;;;2.70;99.90;;;;;;5075167;28;20215;-91
2022/01/09 08:11:58;;;;;;;2.58;1.80;;;2.80;99.90;;;;;;5073976;28;20230;-92
2022/01/09 08:14:25;;;;;;;2.92;1.80;;;2.80;99.90;;;;;;5074595;28;20224;-93
2022/01/09 08:16:52;;;;;;;3.50;1.83;;;2.80;99.90;;;;;;5075661;28;20189;-92
2022/01/09 08:19:19;;;;;;;8.43;2.13;;;2.90;99.90;;;;;;5074493;28;20393;-93
2022/01/09 08:21:47;;;;;;;6.20;2.30;;;2.90;99.90;;;;;;5074237;28;20228;-92
2022/01/09 08:24:15;;;;;;;5.45;1.85;;;2.90;99.90;;;;;;5075372;28;20201;-92
2022/01/09 08:26:42;;;;;;;6.18;1.80;;;3.00;99.90;;;;;;5074557;28;20199;-92
2022/01/09 08:29:09;;;;;;;3.35;1.30;;;3.00;99.90;;;;;;5084054;28;20188;-93
2022/01/09 08:31:36;;;;;;;2.28;1.55;;;3.00;99.90;;;;;;5107648;22;20201;-72
2022/01/09 08:34:03;;;;;;;4.80;1.58;;;2.90;99.90;;;;;;5091372;28;20234;-72
2022/01/09 08:36:29;;;;;;;5.05;1.75;;;3.00;99.90;;;;;;5091843;28;20207;-73
2022/01/09 08:38:57;;;;;;;3.08;1.42;;;3.00;99.90;;;;;;5091777;28;20219;-72
2022/01/09 08:41:24;;;;;;;4.65;2.15;;;3.00;99.90;;;;;;5081358;28;20197;-71
2022/01/09 08:43:51;;;;;;;2.17;1.70;;;3.00;99.90;;;;;;5081660;28;20215;-72
2022/01/09 08:46:18;;;;;;;3.63;1.42;;;3.00;99.90;;;;;;5081959;28;20203;-72
2022/01/09 08:48:45;;;;;;;4.05;2.13;;;3.00;99.90;;;;;;5082878;28;20200;-71
2022/01/09 08:51:12;;;;;;;2.35;1.88;;;3.10;99.90;;;;;;5082150;28;20221;-72
2022/01/09 08:53:39;;;;;;;3.78;1.90;;;3.20;99.90;;;;;;5079821;28;20220;-72
2022/01/09 08:56:07;;;;;;;6.05;2.05;;;3.20;99.90;;;;;;5069090;28;20266;-71
2022/01/09 08:58:34;;;;;;;2.50;1.30;;;3.20;99.90;;;;;;5069448;28;20200;-72
2022/01/09 09:01:02;;;;;;;3.08;1.55;;;3.30;99.90;;;;;;5068677;28;20204;-72
2022/01/09 09:03:28;;;;;;;3.65;1.70;;;3.30;99.90;;;;;;5069139;28;20224;-72
2022/01/09 09:05:55;;;;;;;4.65;2.20;;;3.30;99.90;;;;;;5069718;28;20679;-72
2022/01/09 09:08:22;;;;;;;4.05;1.30;;;3.30;99.90;;;;;;5068764;28;20204;-72
2022/01/09 09:10:48;;;;;;;2.95;1.52;;;3.30;99.90;;;;;;5068996;28;20220;-72
2022/01/09 09:13:17;;;;;;;5.78;1.85;;;3.30;99.90;;;;;;5068125;28;20204;-73
2022/01/09 09:15:43;;;;;;;4.70;1.70;;;3.40;99.90;;;;;;5069442;28;20204;-72
2022/01/09 09:18:10;;;;;;;3.70;1.75;;;3.40;99.90;;;;;;5068269;28;20652;-73
2022/01/09 09:20:38;;;;;;;7.68;1.92;;;3.50;99.90;;;;;;5088519;28;20204;-72
2022/01/09 09:23:05;;;;;;;3.13;2.20;;;3.60;99.90;;;;;;5088361;28;20216;-72
2022/01/09 09:25:31;;;;;;;5.18;2.63;;;3.70;99.90;;;;;;5089317;28;20223;-72
2022/01/09 09:27:58;;;;;;;6.35;1.70;;;3.90;99.90;;;;;;5089571;28;20212;-71
2022/01/09 09:30:26;;;;;;;4.50;1.73;;;4.10;99.90;;;;;;5088464;28;20204;-72
2022/01/09 09:32:53;;;;;;;2.30;2.10;;;4.20;99.90;;;;;;5088379;28;20215;-71
2022/01/09 09:35:20;;;;;;;3.33;1.65;;;4.40;99.90;;;;;;5088266;28;20227;-71
2022/01/09 09:37:46;;;;;;;7.65;1.95;;;4.60;99.90;;;;;;5088694;28;20634;-71
2022/01/09 09:40:13;;;;;;;3.80;1.85;;;4.90;99.90;;;;;;5088047;28;20235;-71
2022/01/09 09:42:41;;;;;;;5.07;2.03;;;4.90;99.90;;;;;;5088747;28;20210;-71
2022/01/09 09:45:09;;;;;;;5.03;1.67;;;5.00;99.90;;;;;;5082472;28;20265;-74
2022/01/09 09:47:39;;;;;;;5.68;2.40;;;5.00;99.90;;;;;;5077455;28;20660;-72
2022/01/09 09:50:09;;;;;;;3.88;1.80;;;4.90;99.90;;;;;;5082242;28;20203;-71
2022/01/09 09:52:36;;;;;;;2.70;1.65;;;4.90;99.90;;;;;;5084944;28;20212;-72
2022/01/09 09:55:03;;;;;;;4.95;1.80;;;4.80;99.90;;;;;;5088554;28;20220;-71
2022/01/09 09:57:30;;;;;;;6.80;2.28;;;4.80;99.90;;;;;;5086085;28;20214;-71
2022/01/09 10:00:03;;;;;;;4.45;1.98;;;4.70;99.90;;;;;;5073355;28;20554;-72
2022/01/09 10:02:43;;;;;;;3.22;1.65;;;4.50;99.90;;;;;;5071601;28;20203;-71
2022/01/09 10:05:11;;;;;;;4.43;2.30;;;4.50;99.90;;;;;;5072959;28;20251;-71
2022/01/09 10:07:39;;;;;;;3.50;1.92;;;4.40;99.90;;;;;;5073560;28;20208;-72
2022/01/09 10:10:09;;;;;;;7.10;2.60;;;4.40;99.90;;;;;;5072300;28;20231;-72
2022/01/09 10:12:36;;;;;;;4.38;1.77;;;4.40;99.90;;;;;;5072756;28;20224;-72
2022/01/09 10:15:06;;;;;;;4.38;2.10;;;4.30;99.90;;;;;;5072784;28;20600;-72
2022/01/09 10:17:33;;;;;;;3.95;1.70;;;4.30;99.90;;;;;;5073973;28;20691;-72
2022/01/09 10:20:04;;;;;;;3.95;2.00;;;4.50;99.90;;;;;;5073636;28;20211;-73
2022/01/09 10:22:34;;;;;;;5.97;1.77;;;5.40;99.90;;;;;;5078649;28;20215;-71
2022/01/09 10:25:25;;;;;;;7.15;2.70;;;6.60;99.90;;;;;;5094550;28;20592;-72
2022/01/09 10:27:58;;;;;;;3.00;1.20;;;6.90;99.90;;;;;;5091680;28;20646;-72
2022/01/09 10:30:27;;;;;;;5.88;2.30;;;6.50;99.90;;;;;;5093392;28;20238;-71
2022/01/09 10:32:56;;;;;;;9.73;3.85;;;6.30;99.90;;;;;;5092516;28;20269;-72
2022/01/09 10:35:26;;;;;;;7.15;1.80;;;6.00;99.90;;;;;;5092840;28;20789;-71
2022/01/09 10:38:08;;;;;;;3.58;2.08;;;5.70;99.90;;;;;;5091262;28;20199;-72
2022/01/09 10:40:38;;;;;;;4.00;1.67;;;5.40;99.90;;;;;;5082484;28;20207;-72
2022/01/09 10:43:07;;;;;;;3.92;1.88;;;5.30;99.90;;;;;;5079888;28;20284;-72
2022/01/09 10:45:37;;;;;;;4.63;1.55;;;5.10;99.90;;;;;;5086152;28;20223;-72
2022/01/09 10:48:06;;;;;;;6.80;2.83;;;5.00;99.90;;;;;;5080940;28;20196;-72
2022/01/09 10:50:39;;;;;;;3.42;1.52;;;5.00;99.90;;;;;;5089683;28;20686;-71
2022/01/09 10:53:18;;;;;;;5.32;1.80;;;5.00;99.90;;;;;;5071274;28;20220;-73
2022/01/09 10:55:46;;;;;;;4.47;1.83;;;5.00;99.90;;;;;;5073836;28;20407;-70
2022/01/09 10:58:22;;;;;;;3.10;1.58;;;5.10;99.90;;;;;;5071372;28;20211;-71
2022/01/09 11:01:06;;;;;;;4.57;1.67;;;5.20;99.90;;;;;;5071892;28;20232;-73
2022/01/09 11:03:33;;;;;;;4.22;1.65;;;5.10;99.90;;;;;;5070487;28;20309;-73
2022/01/09 11:06:02;;;;;;;4.38;2.15;;;5.20;99.90;;;;;;5086679;28;20675;-72
2022/01/09 11:08:30;;;;;;;2.25;1.50;;;5.20;99.90;;;;;;5079573;28;20262;-73
2022/01/09 11:10:59;;;;;;;3.50;1.45;;;5.20;99.90;;;;;;5090581;28;20199;-72
2022/01/09 11:13:28;;;;;;;2.88;1.95;;;5.00;99.90;;;;;;5090381;28;20214;-72
2022/01/09 11:18:43;;;;;;;3.55;1.40;;;6.10;99.90;;;;;;5090799;28;20256;-72
2022/01/09 11:21:11;;;;;;;4.03;2.30;;;6.50;99.90;;;;;;5090757;28;20196;-71
2022/01/09 11:23:50;;;;;;;5.22;1.58;;;6.50;99.90;;;;;;5091071;28;20273;-72
2022/01/09 11:26:18;;;;;;;3.13;1.50;;;6.30;99.90;;;;;;5091594;28;20199;-71
2022/01/09 11:28:50;;;;;;;5.10;2.05;;;5.90;99.90;;;;;;5091132;28;20211;-71
2022/01/09 11:31:26;;;;;;;3.05;1.35;;;5.50;99.90;;;;;;5090304;28;20226;-72
2022/01/09 11:34:00;;;;;;;2.67;1.38;;;5.30;99.90;;;;;;5091248;28;20224;-71
2022/01/09 11:36:37;;;;;;;2.65;1.33;;;5.30;99.90;;;;;;5090835;28;20208;-72
2022/01/09 11:39:12;;;;;;;2.40;1.50;;;5.60;99.90;;;;;;5078813;28;20269;-71
2022/01/09 11:41:40;;;;;;;4.28;1.60;;;6.00;99.90;;;;;;5088730;28;20256;-72
2022/01/09 11:44:09;;;;;;;3.28;1.52;;;6.80;99.90;;;;;;5092150;28;20251;-70
2022/01/09 11:46:58;;;;;;;3.25;2.20;;;7.70;99.90;;;;;;5091158;28;20200;-71
2022/01/09 11:49:25;;;;;;;2.33;1.10;;;8.60;99.90;;;;;;5076714;28;20231;-71
2022/01/09 11:51:55;;;;;;;2.20;1.40;;;9.20;99.90;;;;;;5086980;28;20597;-71
2022/01/09 11:54:23;;;;;;;5.43;1.40;;;9.20;99.90;;;;;;5090199;28;20230;-70
2022/01/09 11:56:56;;;;;;;3.30;1.50;;;8.30;99.90;;;;;;5090486;28;20204;-72
2022/01/09 11:59:29;;;;;;;2.08;1.45;;;7.70;99.90;;;;;;5083585;28;20602;-72
2022/01/09 12:01:59;;;;;;;2.30;1.10;;;7.50;99.90;;;;;;5080994;28;20219;-71
2022/01/09 12:04:54;;;;;;;4.10;1.33;;;7.30;99.90;;;;;;5090670;28;20220;-71
2022/01/09 12:08:05;;;;;;;1.90;1.27;;;7.10;99.90;;;;;;5051444;28;20552;-71
2022/01/09 12:10:41;;;;;;;2.70;1.30;;;7.10;99.90;;;;;;5091242;28;20210;-72
2022/01/09 12:13:49;;;;;;;5.88;1.55;;;6.80;99.90;;;;;;5090711;28;20314;-73
2022/01/09 12:16:53;;;;;;;3.33;1.10;;;6.70;99.90;;;;;;5091024;28;20200;-71
2022/01/09 12:20:04;;;;;;;4.88;1.40;;;6.40;99.90;;;;;;5088674;28;20207;-73
2022/01/09 12:23:04;;;;;;;3.65;1.55;;;6.20;99.90;;;;;;5090784;28;20202;-72
2022/01/09 12:25:54;;;;;;;4.65;1.30;;;6.10;99.90;;;;;;5088045;28;20226;-72
2022/01/09 12:28:46;;;;;;;3.08;1.67;;;6.00;99.90;;;;;;5090938;28;20200;-72
2022/01/09 12:31:25;;;;;;;2.75;1.35;;;5.90;99.90;;;;;;5088531;28;20626;-71
2022/01/09 12:33:53;;;;;;;3.78;1.30;;;5.80;99.90;;;;;;5074226;28;20307;-71
2022/01/09 12:36:23;;;;;;;2.75;1.30;;;5.90;99.90;;;;;;5070751;28;20291;-71
2022/01/09 12:38:54;;;;;;;3.00;1.35;;;6.10;99.90;;;;;;5084220;28;20671;-71
2022/01/09 12:41:24;;;;;;;2.50;1.50;;;6.10;99.90;;;;;;5089417;28;20202;-72
2022/01/09 12:43:58;;;;;;;2.25;1.35;;;6.20;99.90;;;;;;5089903;28;20266;-72
2022/01/09 12:46:25;;;;;;;3.58;1.90;;;6.60;99.90;;;;;;5089991;28;20222;-72
2022/01/09 12:48:53;;;;;;;5.03;1.60;;;7.20;99.90;;;;;;5088815;28;20291;-72
2022/01/09 12:51:20;;;;;;;3.75;1.50;;;8.00;99.90;;;;;;5088888;28;20203;-72
2022/01/09 12:53:48;;;;;;;2.40;1.70;;;8.60;99.90;;;;;;5089628;28;20220;-71
2022/01/09 12:56:16;;;;;;;3.10;1.75;;;9.20;99.90;;;;;;5090344;28;20196;-72
2022/01/09 12:58:47;;;;;;;3.90;2.17;;;9.30;99.90;;;;;;5089529;28;20200;-71
2022/01/09 13:01:19;;;;;;;3.70;1.58;;;8.90;99.90;;;;;;5089052;28;20276;-71
2022/01/09 13:03:47;;;;;;;4.53;2.10;;;8.40;99.90;;;;;;5089870;28;20588;-71
2022/01/09 13:06:16;;;;;;;1.92;1.52;;;8.10;99.90;;;;;;5089945;28;20199;-71
2022/01/09 13:08:46;;;;;;;2.33;1.25;;;8.10;99.90;;;;;;5089564;28;20207;-72